sensor_id;sensor_type;location;lat;lon;timestamp;P1;durP1;ratioP1;P2;durP2;ratioP2
11090;SDS011;5599;52.210;21.046;2023-03-21T00:00:53;26.73;;;21.80;;
11090;SDS011;5599;52.210;21.046;2023-03-21T00:03:23;25.57;;;22.53;;
11090;SDS011;5599;52.210;21.046;2023-03-21T00:05:53;25.17;;;22.27;;
11090;SDS011;5599;52.210;21.046;2023-03-21T00:08:24;27.63;;;21.67;;
11090;SDS011;5599;52.210;21.046;2023-03-21T00:10:54;26.03;;;21.23;;
11090;SDS011;5599;52.210;21.046;2023-03-21T00:13:25;24.60;;;21.33;;
11090;SDS011;5599;52.210;21.046;2023-03-21T00:16:18;28.97;;;23.30;;
11090;SDS011;5599;52.210;21.046;2023-03-21T00:19:00;26.33;;;21.97;;
11090;SDS011;5599;52.210;21.046;2023-03-21T00:21:32;26.67;;;22.17;;
11090;SDS011;5599;52.210;21.046;2023-03-21T00:24:22;29.03;;;23.13;;
11090;SDS011;5599;52.210;21.046;2023-03-21T00:26:52;29.83;;;23.20;;
11090;SDS011;5599;52.210;21.046;2023-03-21T00:29:36;27.17;;;22.00;;
11090;SDS011;5599;52.210;21.046;2023-03-21T00:32:06;27.70;;;22.07;;
11090;SDS011;5599;52.210;21.046;2023-03-21T00:34:35;27.27;;;22.20;;
11090;SDS011;5599;52.210;21.046;2023-03-21T00:37:14;27.73;;;22.23;;
11090;SDS011;5599;52.210;21.046;2023-03-21T00:39:47;29.43;;;22.23;;
11090;SDS011;5599;52.210;21.046;2023-03-21T00:42:17;28.67;;;22.67;;
11090;SDS011;5599;52.210;21.046;2023-03-21T00:44:47;27.60;;;22.63;;
11090;SDS011;5599;52.210;21.046;2023-03-21T00:47:16;29.00;;;23.40;;
11090;SDS011;5599;52.210;21.046;2023-03-21T00:49:45;32.37;;;23.37;;
11090;SDS011;5599;52.210;21.046;2023-03-21T00:52:16;29.53;;;22.93;;
11090;SDS011;5599;52.210;21.046;2023-03-21T00:55:06;28.57;;;22.93;;
11090;SDS011;5599;52.210;21.046;2023-03-21T00:57:37;29.57;;;23.37;;
11090;SDS011;5599;52.210;21.046;2023-03-21T01:00:08;29.30;;;23.73;;
11090;SDS011;5599;52.210;21.046;2023-03-21T01:02:39;29.17;;;22.23;;
11090;SDS011;5599;52.210;21.046;2023-03-21T01:05:31;28.37;;;22.37;;
11090;SDS011;5599;52.210;21.046;2023-03-21T01:08:19;27.53;;;22.47;;
11090;SDS011;5599;52.210;21.046;2023-03-21T01:11:01;28.87;;;22.60;;
11090;SDS011;5599;52.210;21.046;2023-03-21T01:13:32;27.17;;;22.50;;
11090;SDS011;5599;52.210;21.046;2023-03-21T01:16:07;29.10;;;22.97;;
11090;SDS011;5599;52.210;21.046;2023-03-21T01:18:37;27.50;;;21.70;;
11090;SDS011;5599;52.210;21.046;2023-03-21T01:21:09;27.83;;;22.17;;
11090;SDS011;5599;52.210;21.046;2023-03-21T01:23:41;28.23;;;21.73;;
11090;SDS011;5599;52.210;21.046;2023-03-21T01:26:13;27.80;;;22.33;;
11090;SDS011;5599;52.210;21.046;2023-03-21T01:28:43;25.60;;;21.53;;
11090;SDS011;5599;52.210;21.046;2023-03-21T01:31:13;26.53;;;21.83;;
11090;SDS011;5599;52.210;21.046;2023-03-21T01:33:44;27.13;;;20.77;;
11090;SDS011;5599;52.210;21.046;2023-03-21T01:36:16;24.60;;;19.47;;
11090;SDS011;5599;52.210;21.046;2023-03-21T01:38:52;24.20;;;19.50;;
11090;SDS011;5599;52.210;21.046;2023-03-21T01:41:25;26.47;;;21.23;;
11090;SDS011;5599;52.210;21.046;2023-03-21T01:44:21;23.47;;;19.97;;
11090;SDS011;5599;52.210;21.046;2023-03-21T01:46:51;28.43;;;21.20;;
11090;SDS011;5599;52.210;21.046;2023-03-21T01:49:44;26.40;;;20.60;;
11090;SDS011;5599;52.210;21.046;2023-03-21T01:52:37;27.27;;;21.53;;
11090;SDS011;5599;52.210;21.046;2023-03-21T01:55:11;26.23;;;21.60;;
11090;SDS011;5599;52.210;21.046;2023-03-21T01:58:04;24.97;;;22.37;;
11090;SDS011;5599;52.210;21.046;2023-03-21T02:00:54;26.37;;;20.20;;
11090;SDS011;5599;52.210;21.046;2023-03-21T02:03:35;25.50;;;20.77;;
11090;SDS011;5599;52.210;21.046;2023-03-21T02:06:38;23.87;;;19.83;;
11090;SDS011;5599;52.210;21.046;2023-03-21T02:09:32;22.07;;;19.37;;
11090;SDS011;5599;52.210;21.046;2023-03-21T02:12:10;26.37;;;20.43;;
11090;SDS011;5599;52.210;21.046;2023-03-21T02:14:44;23.87;;;18.50;;
11090;SDS011;5599;52.210;21.046;2023-03-21T02:17:39;22.00;;;18.60;;
11090;SDS011;5599;52.210;21.046;2023-03-21T02:20:23;23.60;;;18.73;;
11090;SDS011;5599;52.210;21.046;2023-03-21T02:23:09;22.00;;;18.93;;
11090;SDS011;5599;52.210;21.046;2023-03-21T02:29:17;22.27;;;19.10;;
11090;SDS011;5599;52.210;21.046;2023-03-21T02:32:04;20.83;;;18.03;;
11090;SDS011;5599;52.210;21.046;2023-03-21T02:35:12;22.47;;;17.90;;
11090;SDS011;5599;52.210;21.046;2023-03-21T02:37:52;21.50;;;17.70;;
11090;SDS011;5599;52.210;21.046;2023-03-21T02:40:29;21.10;;;16.57;;
11090;SDS011;5599;52.210;21.046;2023-03-21T02:43:03;22.43;;;17.90;;
11090;SDS011;5599;52.210;21.046;2023-03-21T02:45:50;21.00;;;16.87;;
11090;SDS011;5599;52.210;21.046;2023-03-21T02:48:26;23.17;;;17.97;;
11090;SDS011;5599;52.210;21.046;2023-03-21T02:51:17;20.43;;;18.13;;
11090;SDS011;5599;52.210;21.046;2023-03-21T02:53:52;22.97;;;19.33;;
11090;SDS011;5599;52.210;21.046;2023-03-21T02:56:45;21.63;;;18.37;;
11090;SDS011;5599;52.210;21.046;2023-03-21T02:59:16;21.97;;;18.37;;
11090;SDS011;5599;52.210;21.046;2023-03-21T03:01:48;23.43;;;19.50;;
11090;SDS011;5599;52.210;21.046;2023-03-21T03:04:19;23.13;;;19.43;;
11090;SDS011;5599;52.210;21.046;2023-03-21T03:07:01;23.67;;;19.10;;
11090;SDS011;5599;52.210;21.046;2023-03-21T03:09:41;23.77;;;19.20;;
11090;SDS011;5599;52.210;21.046;2023-03-21T03:12:25;23.03;;;19.30;;
11090;SDS011;5599;52.210;21.046;2023-03-21T03:15:04;21.70;;;18.77;;
11090;SDS011;5599;52.210;21.046;2023-03-21T03:17:47;21.63;;;18.97;;
11090;SDS011;5599;52.210;21.046;2023-03-21T03:20:21;24.67;;;20.23;;
11090;SDS011;5599;52.210;21.046;2023-03-21T03:23:06;22.50;;;19.83;;
11090;SDS011;5599;52.210;21.046;2023-03-21T03:25:45;22.03;;;18.83;;
11090;SDS011;5599;52.210;21.046;2023-03-21T03:28:21;22.73;;;18.50;;
11090;SDS011;5599;52.210;21.046;2023-03-21T03:30:54;21.57;;;17.37;;
11090;SDS011;5599;52.210;21.046;2023-03-21T03:33:41;22.03;;;18.47;;
11090;SDS011;5599;52.210;21.046;2023-03-21T03:36:14;20.70;;;18.07;;
11090;SDS011;5599;52.210;21.046;2023-03-21T03:39:00;22.50;;;18.73;;
11090;SDS011;5599;52.210;21.046;2023-03-21T03:41:36;20.90;;;18.50;;
11090;SDS011;5599;52.210;21.046;2023-03-21T03:44:33;20.47;;;17.80;;
11090;SDS011;5599;52.210;21.046;2023-03-21T03:47:06;20.77;;;17.90;;
11090;SDS011;5599;52.210;21.046;2023-03-21T03:49:47;21.07;;;18.30;;
11090;SDS011;5599;52.210;21.046;2023-03-21T03:52:22;20.53;;;17.33;;
11090;SDS011;5599;52.210;21.046;2023-03-21T03:55:00;20.73;;;17.73;;
11090;SDS011;5599;52.210;21.046;2023-03-21T03:57:36;21.90;;;18.20;;
11090;SDS011;5599;52.210;21.046;2023-03-21T04:00:06;20.87;;;17.33;;
11090;SDS011;5599;52.210;21.046;2023-03-21T04:02:47;22.20;;;18.23;;
11090;SDS011;5599;52.210;21.046;2023-03-21T04:05:20;21.23;;;17.37;;
11090;SDS011;5599;52.210;21.046;2023-03-21T04:07:51;20.00;;;17.33;;
11090;SDS011;5599;52.210;21.046;2023-03-21T04:10:29;19.10;;;16.93;;
11090;SDS011;5599;52.210;21.046;2023-03-21T04:13:01;18.80;;;16.80;;
11090;SDS011;5599;52.210;21.046;2023-03-21T04:15:43;18.63;;;16.53;;
11090;SDS011;5599;52.210;21.046;2023-03-21T04:18:15;19.80;;;17.33;;
11090;SDS011;5599;52.210;21.046;2023-03-21T04:20:44;19.10;;;17.07;;
11090;SDS011;5599;52.210;21.046;2023-03-21T04:23:15;19.33;;;16.87;;
11090;SDS011;5599;52.210;21.046;2023-03-21T04:25:47;20.70;;;16.60;;
11090;SDS011;5599;52.210;21.046;2023-03-21T04:28:32;21.47;;;16.90;;
11090;SDS011;5599;52.210;21.046;2023-03-21T04:31:16;18.97;;;16.53;;
11090;SDS011;5599;52.210;21.046;2023-03-21T04:33:59;18.17;;;16.27;;
11090;SDS011;5599;52.210;21.046;2023-03-21T04:36:29;20.00;;;17.70;;
11090;SDS011;5599;52.210;21.046;2023-03-21T04:39:07;18.20;;;16.30;;
11090;SDS011;5599;52.210;21.046;2023-03-21T04:41:39;17.37;;;15.57;;
11090;SDS011;5599;52.210;21.046;2023-03-21T04:44:11;18.13;;;15.93;;
11090;SDS011;5599;52.210;21.046;2023-03-21T04:46:42;17.90;;;16.00;;
11090;SDS011;5599;52.210;21.046;2023-03-21T04:49:12;17.53;;;15.73;;
11090;SDS011;5599;52.210;21.046;2023-03-21T04:51:42;18.00;;;15.30;;
11090;SDS011;5599;52.210;21.046;2023-03-21T04:54:17;21.53;;;16.13;;
11090;SDS011;5599;52.210;21.046;2023-03-21T04:56:47;18.03;;;15.67;;
11090;SDS011;5599;52.210;21.046;2023-03-21T04:59:19;19.03;;;16.73;;
11090;SDS011;5599;52.210;21.046;2023-03-21T05:01:49;20.23;;;15.63;;
11090;SDS011;5599;52.210;21.046;2023-03-21T05:04:19;16.60;;;14.93;;
11090;SDS011;5599;52.210;21.046;2023-03-21T05:06:49;16.33;;;14.43;;
11090;SDS011;5599;52.210;21.046;2023-03-21T05:09:18;14.77;;;13.13;;
11090;SDS011;5599;52.210;21.046;2023-03-21T05:11:49;16.17;;;14.17;;
11090;SDS011;5599;52.210;21.046;2023-03-21T05:14:21;16.37;;;13.97;;
11090;SDS011;5599;52.210;21.046;2023-03-21T05:16:52;19.43;;;15.13;;
11090;SDS011;5599;52.210;21.046;2023-03-21T05:19:23;14.73;;;13.23;;
11090;SDS011;5599;52.210;21.046;2023-03-21T05:22:03;14.63;;;13.10;;
11090;SDS011;5599;52.210;21.046;2023-03-21T05:24:34;14.87;;;12.93;;
11090;SDS011;5599;52.210;21.046;2023-03-21T05:27:08;14.20;;;12.67;;
11090;SDS011;5599;52.210;21.046;2023-03-21T05:29:45;14.50;;;12.07;;
11090;SDS011;5599;52.210;21.046;2023-03-21T05:32:15;14.83;;;12.47;;
11090;SDS011;5599;52.210;21.046;2023-03-21T05:34:45;13.97;;;12.47;;
11090;SDS011;5599;52.210;21.046;2023-03-21T05:37:16;14.03;;;12.57;;
11090;SDS011;5599;52.210;21.046;2023-03-21T05:39:48;14.67;;;13.10;;
11090;SDS011;5599;52.210;21.046;2023-03-21T05:42:30;13.80;;;12.27;;
11090;SDS011;5599;52.210;21.046;2023-03-21T05:45:10;13.37;;;11.90;;
11090;SDS011;5599;52.210;21.046;2023-03-21T05:47:39;12.97;;;11.60;;
11090;SDS011;5599;52.210;21.046;2023-03-21T05:50:11;12.47;;;11.17;;
11090;SDS011;5599;52.210;21.046;2023-03-21T05:52:45;12.17;;;10.90;;
11090;SDS011;5599;52.210;21.046;2023-03-21T05:55:14;11.33;;;10.13;;
11090;SDS011;5599;52.210;21.046;2023-03-21T05:57:44;11.70;;;10.47;;
11090;SDS011;5599;52.210;21.046;2023-03-21T06:00:23;12.00;;;10.70;;
11090;SDS011;5599;52.210;21.046;2023-03-21T06:03:21;12.53;;;11.30;;
11090;SDS011;5599;52.210;21.046;2023-03-21T06:06:13;12.33;;;11.07;;
11090;SDS011;5599;52.210;21.046;2023-03-21T06:09:01;12.00;;;10.63;;
11090;SDS011;5599;52.210;21.046;2023-03-21T06:11:31;11.93;;;10.60;;
11090;SDS011;5599;52.210;21.046;2023-03-21T06:14:17;11.97;;;10.77;;
11090;SDS011;5599;52.210;21.046;2023-03-21T06:17:15;12.00;;;10.40;;
11090;SDS011;5599;52.210;21.046;2023-03-21T06:19:52;11.60;;;10.40;;
11090;SDS011;5599;52.210;21.046;2023-03-21T06:22:30;10.53;;;9.47;;
11090;SDS011;5599;52.210;21.046;2023-03-21T06:25:01;13.50;;;11.20;;
11090;SDS011;5599;52.210;21.046;2023-03-21T06:27:31;11.37;;;10.27;;
11090;SDS011;5599;52.210;21.046;2023-03-21T06:30:01;12.50;;;11.20;;
11090;SDS011;5599;52.210;21.046;2023-03-21T06:32:38;12.77;;;11.30;;
11090;SDS011;5599;52.210;21.046;2023-03-21T06:35:12;14.93;;;12.97;;
11090;SDS011;5599;52.210;21.046;2023-03-21T06:37:41;10.67;;;9.23;;
11090;SDS011;5599;52.210;21.046;2023-03-21T06:40:12;10.60;;;9.57;;
11090;SDS011;5599;52.210;21.046;2023-03-21T06:42:42;10.57;;;9.57;;
11090;SDS011;5599;52.210;21.046;2023-03-21T06:45:12;10.80;;;9.70;;
11090;SDS011;5599;52.210;21.046;2023-03-21T06:47:43;10.13;;;8.40;;
11090;SDS011;5599;52.210;21.046;2023-03-21T06:50:39;9.70;;;8.43;;
11090;SDS011;5599;52.210;21.046;2023-03-21T06:53:08;10.10;;;9.10;;
11090;SDS011;5599;52.210;21.046;2023-03-21T06:55:56;9.43;;;8.43;;
11090;SDS011;5599;52.210;21.046;2023-03-21T06:58:26;8.50;;;7.70;;
11090;SDS011;5599;52.210;21.046;2023-03-21T07:00:57;9.70;;;8.10;;
11090;SDS011;5599;52.210;21.046;2023-03-21T07:03:28;7.90;;;7.10;;
11090;SDS011;5599;52.210;21.046;2023-03-21T07:06:02;8.73;;;7.83;;
11090;SDS011;5599;52.210;21.046;2023-03-21T07:08:33;9.37;;;7.40;;
11090;SDS011;5599;52.210;21.046;2023-03-21T07:11:04;9.17;;;8.03;;
11090;SDS011;5599;52.210;21.046;2023-03-21T07:13:33;8.23;;;7.53;;
11090;SDS011;5599;52.210;21.046;2023-03-21T07:16:04;9.03;;;7.63;;
11090;SDS011;5599;52.210;21.046;2023-03-21T07:18:36;8.00;;;7.20;;
11090;SDS011;5599;52.210;21.046;2023-03-21T07:21:06;9.13;;;7.40;;
11090;SDS011;5599;52.210;21.046;2023-03-21T07:23:36;6.77;;;6.17;;
11090;SDS011;5599;52.210;21.046;2023-03-21T07:26:06;7.37;;;6.67;;
11090;SDS011;5599;52.210;21.046;2023-03-21T07:28:37;7.33;;;6.60;;
11090;SDS011;5599;52.210;21.046;2023-03-21T07:31:07;7.70;;;6.93;;
11090;SDS011;5599;52.210;21.046;2023-03-21T07:33:42;8.50;;;6.37;;
11090;SDS011;5599;52.210;21.046;2023-03-21T07:36:13;7.00;;;6.37;;
11090;SDS011;5599;52.210;21.046;2023-03-21T07:38:44;7.30;;;6.60;;
11090;SDS011;5599;52.210;21.046;2023-03-21T07:41:19;6.87;;;6.03;;
11090;SDS011;5599;52.210;21.046;2023-03-21T07:43:49;6.17;;;5.53;;
11090;SDS011;5599;52.210;21.046;2023-03-21T07:46:19;5.73;;;5.23;;
11090;SDS011;5599;52.210;21.046;2023-03-21T07:48:50;6.50;;;5.90;;
11090;SDS011;5599;52.210;21.046;2023-03-21T07:51:22;6.10;;;5.50;;
11090;SDS011;5599;52.210;21.046;2023-03-21T07:53:51;5.87;;;5.03;;
11090;SDS011;5599;52.210;21.046;2023-03-21T07:56:21;6.10;;;5.53;;
11090;SDS011;5599;52.210;21.046;2023-03-21T07:59:02;7.43;;;5.73;;
11090;SDS011;5599;52.210;21.046;2023-03-21T08:01:39;6.00;;;5.40;;
11090;SDS011;5599;52.210;21.046;2023-03-21T08:04:16;5.70;;;5.20;;
11090;SDS011;5599;52.210;21.046;2023-03-21T08:07:06;4.83;;;4.43;;
11090;SDS011;5599;52.210;21.046;2023-03-21T08:09:46;4.93;;;4.53;;
11090;SDS011;5599;52.210;21.046;2023-03-21T08:12:19;5.77;;;5.27;;
11090;SDS011;5599;52.210;21.046;2023-03-21T08:15:01;6.13;;;5.50;;
11090;SDS011;5599;52.210;21.046;2023-03-21T08:17:39;6.30;;;5.70;;
11090;SDS011;5599;52.210;21.046;2023-03-21T08:20:20;6.03;;;5.43;;
11090;SDS011;5599;52.210;21.046;2023-03-21T08:22:57;6.70;;;6.00;;
11090;SDS011;5599;52.210;21.046;2023-03-21T08:25:42;6.47;;;5.87;;
11090;SDS011;5599;52.210;21.046;2023-03-21T08:28:19;8.87;;;6.00;;
11090;SDS011;5599;52.210;21.046;2023-03-21T08:31:08;7.07;;;6.40;;
11090;SDS011;5599;52.210;21.046;2023-03-21T08:33:50;7.43;;;6.60;;
11090;SDS011;5599;52.210;21.046;2023-03-21T08:36:27;7.43;;;6.70;;
11090;SDS011;5599;52.210;21.046;2023-03-21T08:39:07;7.30;;;6.60;;
11090;SDS011;5599;52.210;21.046;2023-03-21T08:41:41;6.20;;;5.60;;
11090;SDS011;5599;52.210;21.046;2023-03-21T08:44:24;6.70;;;6.10;;
11090;SDS011;5599;52.210;21.046;2023-03-21T08:47:03;6.40;;;5.80;;
11090;SDS011;5599;52.210;21.046;2023-03-21T08:49:38;6.80;;;6.20;;
11090;SDS011;5599;52.210;21.046;2023-03-21T08:52:16;7.27;;;6.27;;
11090;SDS011;5599;52.210;21.046;2023-03-21T08:54:50;5.77;;;5.27;;
11090;SDS011;5599;52.210;21.046;2023-03-21T08:57:23;6.20;;;5.57;;
11090;SDS011;5599;52.210;21.046;2023-03-21T09:00:01;6.43;;;5.83;;
11090;SDS011;5599;52.210;21.046;2023-03-21T09:02:42;6.27;;;5.70;;
11090;SDS011;5599;52.210;21.046;2023-03-21T09:05:23;5.77;;;5.27;;
11090;SDS011;5599;52.210;21.046;2023-03-21T09:08:14;5.87;;;5.33;;
11090;SDS011;5599;52.210;21.046;2023-03-21T09:10:51;5.80;;;5.27;;
11090;SDS011;5599;52.210;21.046;2023-03-21T09:13:21;4.97;;;4.57;;
11090;SDS011;5599;52.210;21.046;2023-03-21T09:15:51;6.00;;;5.40;;
11090;SDS011;5599;52.210;21.046;2023-03-21T09:18:20;6.67;;;6.07;;
11090;SDS011;5599;52.210;21.046;2023-03-21T09:21:10;6.13;;;5.60;;
11090;SDS011;5599;52.210;21.046;2023-03-21T09:23:42;5.47;;;4.97;;
11090;SDS011;5599;52.210;21.046;2023-03-21T09:26:13;5.63;;;5.13;;
11090;SDS011;5599;52.210;21.046;2023-03-21T09:28:43;5.67;;;5.17;;
11090;SDS011;5599;52.210;21.046;2023-03-21T09:31:15;5.77;;;5.20;;
11090;SDS011;5599;52.210;21.046;2023-03-21T09:33:49;5.97;;;5.40;;
11090;SDS011;5599;52.210;21.046;2023-03-21T09:36:19;6.27;;;5.67;;
11090;SDS011;5599;52.210;21.046;2023-03-21T09:38:52;5.23;;;4.73;;
11090;SDS011;5599;52.210;21.046;2023-03-21T09:41:25;5.70;;;4.97;;
11090;SDS011;5599;52.210;21.046;2023-03-21T09:44:15;5.97;;;5.27;;
11090;SDS011;5599;52.210;21.046;2023-03-21T09:46:54;5.53;;;5.03;;
11090;SDS011;5599;52.210;21.046;2023-03-21T09:49:30;5.87;;;5.37;;
11090;SDS011;5599;52.210;21.046;2023-03-21T09:52:03;6.40;;;5.27;;
11090;SDS011;5599;52.210;21.046;2023-03-21T09:54:42;5.57;;;5.00;;
11090;SDS011;5599;52.210;21.046;2023-03-21T09:57:14;6.70;;;5.50;;
11090;SDS011;5599;52.210;21.046;2023-03-21T09:59:51;5.90;;;5.23;;
11090;SDS011;5599;52.210;21.046;2023-03-21T10:02:34;6.43;;;5.10;;
11090;SDS011;5599;52.210;21.046;2023-03-21T10:05:10;6.17;;;5.20;;
11090;SDS011;5599;52.210;21.046;2023-03-21T10:07:45;5.53;;;5.03;;
11090;SDS011;5599;52.210;21.046;2023-03-21T10:10:23;5.07;;;4.67;;
11090;SDS011;5599;52.210;21.046;2023-03-21T10:12:55;5.60;;;5.10;;
11090;SDS011;5599;52.210;21.046;2023-03-21T10:15:25;6.17;;;5.67;;
11090;SDS011;5599;52.210;21.046;2023-03-21T10:17:56;5.93;;;5.43;;
11090;SDS011;5599;52.210;21.046;2023-03-21T10:20:29;5.93;;;5.43;;
11090;SDS011;5599;52.210;21.046;2023-03-21T10:23:02;6.03;;;5.40;;
11090;SDS011;5599;52.210;21.046;2023-03-21T10:25:35;5.73;;;5.07;;
11090;SDS011;5599;52.210;21.046;2023-03-21T10:28:11;6.43;;;5.83;;
11090;SDS011;5599;52.210;21.046;2023-03-21T10:30:43;5.83;;;5.33;;
11090;SDS011;5599;52.210;21.046;2023-03-21T10:33:17;5.73;;;5.23;;
11090;SDS011;5599;52.210;21.046;2023-03-21T10:35:50;6.83;;;6.13;;
11090;SDS011;5599;52.210;21.046;2023-03-21T10:38:24;7.33;;;6.63;;
11090;SDS011;5599;52.210;21.046;2023-03-21T10:40:55;6.60;;;6.00;;
11090;SDS011;5599;52.210;21.046;2023-03-21T10:43:32;8.37;;;6.47;;
11090;SDS011;5599;52.210;21.046;2023-03-21T10:46:05;5.13;;;4.63;;
11090;SDS011;5599;52.210;21.046;2023-03-21T10:48:37;4.70;;;4.20;;
11090;SDS011;5599;52.210;21.046;2023-03-21T10:51:14;4.63;;;3.77;;
11090;SDS011;5599;52.210;21.046;2023-03-21T10:53:49;3.93;;;3.43;;
11090;SDS011;5599;52.210;21.046;2023-03-21T10:56:23;3.93;;;3.63;;
11090;SDS011;5599;52.210;21.046;2023-03-21T10:58:55;6.60;;;3.80;;
11090;SDS011;5599;52.210;21.046;2023-03-21T11:01:28;4.67;;;4.17;;
11090;SDS011;5599;52.210;21.046;2023-03-21T11:04:05;4.27;;;3.60;;
11090;SDS011;5599;52.210;21.046;2023-03-21T11:06:42;7.00;;;3.50;;
11090;SDS011;5599;52.210;21.046;2023-03-21T11:09:14;3.40;;;3.10;;
11090;SDS011;5599;52.210;21.046;2023-03-21T11:11:50;2.77;;;2.57;;
11090;SDS011;5599;52.210;21.046;2023-03-21T11:14:25;2.50;;;2.30;;
11090;SDS011;5599;52.210;21.046;2023-03-21T11:17:00;2.80;;;2.60;;
11090;SDS011;5599;52.210;21.046;2023-03-21T11:19:29;3.07;;;2.77;;
11090;SDS011;5599;52.210;21.046;2023-03-21T11:22:03;3.23;;;2.93;;
11090;SDS011;5599;52.210;21.046;2023-03-21T11:24:34;3.23;;;2.70;;
11090;SDS011;5599;52.210;21.046;2023-03-21T11:27:06;4.33;;;3.53;;
11090;SDS011;5599;52.210;21.046;2023-03-21T11:29:36;4.80;;;3.73;;
11090;SDS011;5599;52.210;21.046;2023-03-21T11:32:11;3.63;;;3.33;;
11090;SDS011;5599;52.210;21.046;2023-03-21T11:34:47;4.20;;;3.90;;
11090;SDS011;5599;52.210;21.046;2023-03-21T11:37:21;4.47;;;4.07;;
11090;SDS011;5599;52.210;21.046;2023-03-21T11:39:54;4.27;;;3.70;;
11090;SDS011;5599;52.210;21.046;2023-03-21T11:42:27;6.57;;;4.17;;
11090;SDS011;5599;52.210;21.046;2023-03-21T11:45:01;4.97;;;4.23;;
11090;SDS011;5599;52.210;21.046;2023-03-21T11:47:33;5.63;;;4.60;;
11090;SDS011;5599;52.210;21.046;2023-03-21T11:50:05;4.70;;;4.30;;
11090;SDS011;5599;52.210;21.046;2023-03-21T11:52:46;4.23;;;3.83;;
11090;SDS011;5599;52.210;21.046;2023-03-21T11:55:31;5.47;;;4.23;;
11090;SDS011;5599;52.210;21.046;2023-03-21T11:58:12;4.80;;;4.20;;
11090;SDS011;5599;52.210;21.046;2023-03-21T12:00:55;4.50;;;4.10;;
11090;SDS011;5599;52.210;21.046;2023-03-21T12:06:32;5.30;;;4.80;;
11090;SDS011;5599;52.210;21.046;2023-03-21T12:12:05;5.70;;;5.20;;
11090;SDS011;5599;52.210;21.046;2023-03-21T12:14:49;5.40;;;4.90;;
11090;SDS011;5599;52.210;21.046;2023-03-21T12:17:29;5.27;;;4.87;;
11090;SDS011;5599;52.210;21.046;2023-03-21T12:26:07;6.00;;;5.40;;
11090;SDS011;5599;52.210;21.046;2023-03-21T12:28:44;5.67;;;5.17;;
11090;SDS011;5599;52.210;21.046;2023-03-21T12:31:30;6.57;;;5.43;;
11090;SDS011;5599;52.210;21.046;2023-03-21T12:34:15;5.53;;;5.03;;
11090;SDS011;5599;52.210;21.046;2023-03-21T12:36:59;5.33;;;4.83;;
11090;SDS011;5599;52.210;21.046;2023-03-21T12:39:37;5.03;;;4.63;;
11090;SDS011;5599;52.210;21.046;2023-03-21T12:42:10;5.33;;;4.43;;
11090;SDS011;5599;52.210;21.046;2023-03-21T12:45:02;5.33;;;4.83;;
11090;SDS011;5599;52.210;21.046;2023-03-21T12:47:44;7.67;;;4.83;;
11090;SDS011;5599;52.210;21.046;2023-03-21T12:50:17;4.97;;;4.10;;
11090;SDS011;5599;52.210;21.046;2023-03-21T12:52:51;4.30;;;3.97;;
11090;SDS011;5599;52.210;21.046;2023-03-21T12:55:23;4.77;;;4.37;;
11090;SDS011;5599;52.210;21.046;2023-03-21T12:57:57;4.50;;;4.00;;
11090;SDS011;5599;52.210;21.046;2023-03-21T13:00:33;4.50;;;4.10;;
11090;SDS011;5599;52.210;21.046;2023-03-21T13:03:09;4.30;;;3.90;;
11090;SDS011;5599;52.210;21.046;2023-03-21T13:05:42;5.67;;;4.10;;
11090;SDS011;5599;52.210;21.046;2023-03-21T13:08:16;4.40;;;4.00;;
11090;SDS011;5599;52.210;21.046;2023-03-21T13:10:50;5.00;;;4.30;;
11090;SDS011;5599;52.210;21.046;2023-03-21T13:13:21;7.00;;;4.63;;
11090;SDS011;5599;52.210;21.046;2023-03-21T13:16:03;5.30;;;4.80;;
11090;SDS011;5599;52.210;21.046;2023-03-21T13:18:40;4.70;;;4.20;;
11090;SDS011;5599;52.210;21.046;2023-03-21T13:21:17;4.83;;;4.30;;
11090;SDS011;5599;52.210;21.046;2023-03-21T13:24:00;3.90;;;3.60;;
11090;SDS011;5599;52.210;21.046;2023-03-21T13:26:31;3.93;;;3.63;;
11090;SDS011;5599;52.210;21.046;2023-03-21T13:29:18;4.10;;;3.80;;
11090;SDS011;5599;52.210;21.046;2023-03-21T13:31:52;4.37;;;3.97;;
11090;SDS011;5599;52.210;21.046;2023-03-21T13:34:25;4.70;;;4.20;;
11090;SDS011;5599;52.210;21.046;2023-03-21T13:36:56;5.90;;;4.43;;
11090;SDS011;5599;52.210;21.046;2023-03-21T13:39:27;4.83;;;4.33;;
11090;SDS011;5599;52.210;21.046;2023-03-21T13:42:01;4.40;;;4.00;;
11090;SDS011;5599;52.210;21.046;2023-03-21T13:44:38;6.95;;;5.25;;
11090;SDS011;5599;52.210;21.046;2023-03-21T13:53:26;7.43;;;6.73;;
11090;SDS011;5599;52.210;21.046;2023-03-21T13:58:53;7.03;;;6.13;;
11090;SDS011;5599;52.210;21.046;2023-03-21T14:01:29;7.53;;;6.77;;
11090;SDS011;5599;52.210;21.046;2023-03-21T14:04:06;8.47;;;6.27;;
11090;SDS011;5599;52.210;21.046;2023-03-21T14:06:45;7.10;;;6.50;;
11090;SDS011;5599;52.210;21.046;2023-03-21T14:09:19;6.80;;;6.10;;
11090;SDS011;5599;52.210;21.046;2023-03-21T14:11:53;5.87;;;5.30;;
11090;SDS011;5599;52.210;21.046;2023-03-21T14:14:34;6.10;;;5.37;;
11090;SDS011;5599;52.210;21.046;2023-03-21T14:17:12;5.70;;;5.10;;
11090;SDS011;5599;52.210;21.046;2023-03-21T14:19:42;6.63;;;5.97;;
11090;SDS011;5599;52.210;21.046;2023-03-21T14:22:13;6.87;;;5.50;;
11090;SDS011;5599;52.210;21.046;2023-03-21T14:24:46;5.80;;;5.20;;
11090;SDS011;5599;52.210;21.046;2023-03-21T14:27:16;5.80;;;5.20;;
11090;SDS011;5599;52.210;21.046;2023-03-21T14:29:47;6.07;;;5.57;;
11090;SDS011;5599;52.210;21.046;2023-03-21T14:32:20;6.90;;;5.37;;
11090;SDS011;5599;52.210;21.046;2023-03-21T14:34:53;6.90;;;6.20;;
11090;SDS011;5599;52.210;21.046;2023-03-21T14:37:29;6.73;;;5.97;;
11090;SDS011;5599;52.210;21.046;2023-03-21T14:40:00;6.97;;;6.23;;
11090;SDS011;5599;52.210;21.046;2023-03-21T14:42:35;6.57;;;5.97;;
11090;SDS011;5599;52.210;21.046;2023-03-21T14:45:13;7.47;;;6.67;;
11090;SDS011;5599;52.210;21.046;2023-03-21T14:47:53;10.87;;;7.10;;
11090;SDS011;5599;52.210;21.046;2023-03-21T14:50:26;8.73;;;6.53;;
11090;SDS011;5599;52.210;21.046;2023-03-21T14:53:03;8.97;;;7.03;;
11090;SDS011;5599;52.210;21.046;2023-03-21T14:55:39;9.23;;;6.97;;
11090;SDS011;5599;52.210;21.046;2023-03-21T14:58:11;6.70;;;6.10;;
11090;SDS011;5599;52.210;21.046;2023-03-21T15:00:45;12.63;;;6.30;;
11090;SDS011;5599;52.210;21.046;2023-03-21T15:03:17;7.47;;;6.13;;
11090;SDS011;5599;52.210;21.046;2023-03-21T15:05:49;7.10;;;5.90;;
11090;SDS011;5599;52.210;21.046;2023-03-21T15:08:21;12.20;;;5.53;;
11090;SDS011;5599;52.210;21.046;2023-03-21T15:10:56;6.50;;;5.73;;
11090;SDS011;5599;52.210;21.046;2023-03-21T15:13:35;6.93;;;5.20;;
11090;SDS011;5599;52.210;21.046;2023-03-21T15:16:08;6.93;;;5.70;;
11090;SDS011;5599;52.210;21.046;2023-03-21T15:18:41;5.70;;;5.20;;
11090;SDS011;5599;52.210;21.046;2023-03-21T15:21:13;8.17;;;5.50;;
11090;SDS011;5599;52.210;21.046;2023-03-21T15:23:47;4.83;;;3.97;;
11090;SDS011;5599;52.210;21.046;2023-03-21T15:26:22;8.07;;;5.13;;
11090;SDS011;5599;52.210;21.046;2023-03-21T15:28:55;4.60;;;4.20;;
11090;SDS011;5599;52.210;21.046;2023-03-21T15:31:27;4.87;;;4.20;;
11090;SDS011;5599;52.210;21.046;2023-03-21T15:33:58;4.63;;;4.17;;
11090;SDS011;5599;52.210;21.046;2023-03-21T15:36:31;6.40;;;4.60;;
11090;SDS011;5599;52.210;21.046;2023-03-21T15:39:04;5.73;;;4.10;;
11090;SDS011;5599;52.210;21.046;2023-03-21T15:41:35;5.07;;;4.57;;
11090;SDS011;5599;52.210;21.046;2023-03-21T15:44:10;4.00;;;3.70;;
11090;SDS011;5599;52.210;21.046;2023-03-21T15:46:44;5.57;;;4.40;;
11090;SDS011;5599;52.210;21.046;2023-03-21T15:49:19;5.07;;;4.50;;
11090;SDS011;5599;52.210;21.046;2023-03-21T15:51:55;4.90;;;4.50;;